Terminal Aerodrome Forecast
Issued by NWS

Home | Current Version | Previous Version | Text Only | Print | Product List | Glossary On
Versions: 1 2 3 4 5 6 7 8 9 10 11 12 13 14 15 16
000
FTUS46 KSGX 011746 CCA
TAFONT
TAF COR
KONT 011746Z 0118/0224 VRB05KT P6SM VCSH BKN080
     FM012200 23010KT P6SM VCSH SCT025 BKN080
     FM020300 25005KT P6SM VCSH SCT015 BKN080
     FM022300 25009KT P6SM SCT030 SCT090=

USA.gov is the U.S. government's official web portal to all federal, state and local government web resources and services.